Time;durP1;ratioP1;P1;durP2;ratioP2;P2;SDS_P1;SDS_P2;PMS_P1;PMS_P2;Temp;Humidity;BMP_temperature;BMP_pressure;BME280_temperature;BME280_humidity;BME280_pressure;Samples;Min_cycle;Max_cycle;Signal;HPM_P1;HPM_P2
2022/02/05 00:01:26;;;;;;;24.15;10.38;;;;;;;1.85;100.00;101453.06;5091393;28;20056;-78
2022/02/05 00:03:58;;;;;;;24.42;11.30;;;;;;;1.85;100.00;101446.94;5091403;28;20028;-75
2022/02/05 00:06:29;;;;;;;26.52;12.13;;;;;;;1.78;100.00;101455.28;5092220;28;20103;-77
2022/02/05 00:09:06;;;;;;;27.73;12.48;;;;;;;1.72;100.00;101459.38;5091708;28;20032;-75
2022/02/05 00:14:42;;;;;;;27.77;13.10;;;;;;;1.71;100.00;101462.78;5090569;28;20390;-75
2022/02/05 00:43:58;;;;;;;25.48;11.40;;;;;;;1.43;100.00;101493.47;5048843;28;20068;-75
2022/02/05 00:46:26;;;;;;;27.30;12.20;;;;;;;1.42;100.00;101494.31;5051788;28;20049;-75
2022/02/05 00:48:52;;;;;;;26.23;12.02;;;;;;;1.45;100.00;101500.56;5051681;28;20120;-76
2022/02/05 00:51:24;;;;;;;24.90;11.77;;;;;;;1.42;100.00;101496.91;5052414;28;20116;-75
2022/02/05 00:54:01;;;;;;;24.95;11.80;;;;;;;1.37;100.00;101508.00;5054963;28;20029;-76
2022/02/05 00:56:48;;;;;;;26.23;12.25;;;;;;;1.32;100.00;101504.22;5055451;28;20032;-78
2022/02/05 00:59:13;;;;;;;26.70;12.55;;;;;;;1.36;100.00;101505.31;5050919;28;20129;-78
2022/02/05 01:01:38;;;;;;;27.55;12.70;;;;;;;1.32;100.00;101511.16;5052087;28;20394;-74
2022/02/05 01:04:04;;;;;;;27.00;12.55;;;;;;;1.28;100.00;101506.59;5052697;28;20033;-76
2022/02/05 01:06:29;;;;;;;26.00;12.85;;;;;;;1.30;100.00;101510.19;5056075;28;20033;-75
2022/02/05 01:08:55;;;;;;;26.17;12.93;;;;;;;1.33;100.00;101513.84;5055239;28;20116;-77
2022/02/05 01:11:20;;;;;;;26.42;12.07;;;;;;;1.32;100.00;101519.88;5065193;28;20044;-74
2022/02/05 01:13:46;;;;;;;25.80;12.23;;;;;;;1.29;100.00;101535.34;5094838;28;20578;-76
2022/02/05 01:16:20;;;;;;;27.40;13.00;;;;;;;1.21;100.00;101534.06;5093399;28;20020;-76
2022/02/05 01:18:47;;;;;;;30.95;12.90;;;;;;;1.26;100.00;101522.16;5094575;28;20040;-74
2022/02/05 01:24:05;;;;;;;26.10;12.18;;;;;;;1.38;100.00;101541.06;5091901;28;20032;-74
2022/02/05 01:26:32;;;;;;;26.13;11.60;;;;;;;1.45;100.00;101546.59;5093963;28;20032;-77
2022/02/05 01:29:06;;;;;;;26.13;11.30;;;;;;;1.48;100.00;101546.75;5093525;28;20046;-74
2022/02/05 01:31:39;;;;;;;27.55;11.55;;;;;;;1.50;100.00;101552.91;5094387;28;20028;-77
2022/02/05 01:34:16;;;;;;;26.70;11.50;;;;;;;1.48;100.00;101557.16;5094785;28;20115;-75
2022/02/05 02:05:29;;;;;;;26.85;10.60;;;;;;;1.46;100.00;101597.91;5031883;28;20037;-78
2022/02/05 02:26:52;;;;;;;29.58;11.20;;;;;;;1.22;100.00;101611.38;5049276;28;20037;-78
2022/02/05 02:32:03;;;;;;;26.85;10.85;;;;;;;1.30;100.00;101609.19;4972814;28;20049;-73
2022/02/05 02:34:34;;;;;;;26.30;10.68;;;;;;;1.31;100.00;101606.69;4976313;28;20038;-77
2022/02/05 02:37:13;;;;;;;26.85;10.85;;;;;;;1.26;100.00;101613.34;4972086;28;20043;-77
2022/02/05 02:39:58;;;;;;;28.20;10.70;;;;;;;1.21;100.00;101630.44;4972793;28;20034;-74
2022/02/05 02:42:24;;;;;;;27.90;11.00;;;;;;;1.15;100.00;101625.78;4974934;28;20133;-75
2022/02/05 02:44:50;;;;;;;28.30;11.10;;;;;;;1.17;100.00;101629.34;4972006;28;20174;-74
2022/02/05 02:47:15;;;;;;;28.17;10.82;;;;;;;1.15;100.00;101635.28;4975022;28;20148;-73
2022/02/05 02:57:40;;;;;;;25.27;10.38;;;;;;;1.26;100.00;101633.28;5028711;28;20047;-75
2022/02/05 03:00:10;;;;;;;28.33;11.07;;;;;;;1.26;100.00;101647.19;5032026;28;20029;-75
2022/02/05 03:02:36;;;;;;;26.40;10.98;;;;;;;1.24;100.00;101651.44;5030435;28;20049;-75
2022/02/05 03:05:01;;;;;;;26.48;11.15;;;;;;;1.24;100.00;101656.66;5033487;28;20586;-76
2022/02/05 03:07:26;;;;;;;27.88;11.00;;;;;;;1.17;100.00;101657.13;5030433;28;20072;-73
2022/02/05 03:09:54;;;;;;;28.13;11.57;;;;;;;1.20;100.00;101650.34;5080183;28;20465;-74
2022/02/05 03:12:21;;;;;;;27.73;12.00;;;;;;;1.13;100.00;101648.22;5091403;28;20024;-77
2022/02/05 03:14:47;;;;;;;28.73;11.88;;;;;;;1.08;100.00;101656.59;5092517;28;20028;-73
2022/02/05 03:17:17;;;;;;;28.92;12.02;;;;;;;1.04;100.00;101658.13;5092496;28;20375;-77
2022/02/05 03:19:44;;;;;;;26.95;11.55;;;;;;;0.96;100.00;101655.13;5091077;28;20062;-74
2022/02/05 03:22:10;;;;;;;28.45;11.73;;;;;;;0.94;100.00;101661.94;5092283;28;20028;-75
2022/02/05 03:24:35;;;;;;;27.17;11.75;;;;;;;0.94;100.00;101661.94;5092177;28;20053;-73
2022/02/05 03:27:01;;;;;;;28.63;11.55;;;;;;;1.02;100.00;101667.56;5092470;28;20028;-74
2022/02/05 03:29:26;;;;;;;27.60;11.23;;;;;;;1.03;100.00;101666.75;5092297;28;20169;-74
2022/02/05 03:31:51;;;;;;;28.25;11.98;;;;;;;0.93;100.00;101672.25;5092035;28;20060;-73
2022/02/05 03:34:17;;;;;;;28.33;12.00;;;;;;;0.82;100.00;101677.75;5092234;28;20016;-75
2022/02/05 03:36:42;;;;;;;26.67;11.35;;;;;;;0.78;100.00;101685.31;5091835;28;20020;-74
2022/02/05 03:39:08;;;;;;;29.48;12.48;;;;;;;0.76;100.00;101685.22;5092102;28;20028;-75
2022/02/05 03:41:34;;;;;;;29.75;11.98;;;;;;;0.77;100.00;101683.50;5090255;28;20020;-73
2022/02/05 03:44:00;;;;;;;29.38;13.02;;;;;;;0.74;100.00;101694.63;5092371;28;20100;-73
2022/02/05 03:46:26;;;;;;;28.63;12.27;;;;;;;0.77;100.00;101689.63;5090931;28;20027;-75
2022/02/05 03:48:51;;;;;;;28.20;11.93;;;;;;;0.82;100.00;101693.38;5091635;28;20417;-76
2022/02/05 03:51:17;;;;;;;30.67;12.38;;;;;;;0.82;100.00;101687.28;5091699;28;20066;-74
2022/02/05 03:53:42;;;;;;;28.02;12.50;;;;;;;0.79;100.00;101681.91;5091677;28;20390;-74
2022/02/05 03:56:07;;;;;;;29.17;13.10;;;;;;;0.73;100.00;101695.47;5092258;28;20048;-74
2022/02/05 03:58:33;;;;;;;27.38;12.38;;;;;;;0.75;100.00;101690.34;5092033;28;20026;-76
2022/02/05 04:00:58;;;;;;;31.25;12.77;;;;;;;0.78;100.00;101690.50;5090892;28;20020;-76
2022/02/05 04:03:23;;;;;;;28.08;11.88;;;;;;;0.82;100.00;101693.38;5091691;28;20077;-76
2022/02/05 04:05:49;;;;;;;31.27;12.98;;;;;;;0.79;100.00;101684.50;5091751;28;20023;-74
2022/02/05 04:08:15;;;;;;;28.13;12.20;;;;;;;0.80;100.00;101694.09;5091644;28;20027;-77
2022/02/05 04:10:48;;;;;;;29.17;12.55;;;;;;;0.84;100.00;101688.25;5091236;28;20024;-77
2022/02/05 04:18:56;;;;;;;29.02;12.65;;;;;;;0.81;100.00;101695.88;5048150;28;20464;-77
2022/02/05 04:21:23;;;;;;;29.35;11.80;;;;;;;0.85;100.00;101710.88;5048603;28;20037;-77
2022/02/05 04:23:49;;;;;;;29.15;12.38;;;;;;;0.84;100.00;101719.50;5047897;28;20044;-77
2022/02/05 04:26:17;;;;;;;26.73;12.18;;;;;;;0.75;100.00;101717.25;5048599;28;20451;-76
2022/02/05 04:28:43;;;;;;;28.55;12.20;;;;;;;0.77;100.00;101714.75;5048924;28;20099;-74
2022/02/05 04:31:09;;;;;;;28.42;12.10;;;;;;;0.73;100.00;101718.88;5048628;28;20037;-78
2022/02/05 04:33:34;;;;;;;28.27;12.23;;;;;;;0.70;100.00;101723.91;5049201;28;20047;-78
2022/02/05 04:36:00;;;;;;;30.30;12.52;;;;;;;0.69;100.00;101714.31;5048812;28;20414;-77
2022/02/05 04:38:27;;;;;;;28.73;12.35;;;;;;;0.74;100.00;101714.56;5048553;28;20025;-77
2022/02/05 04:41:01;;;;;;;29.10;12.48;;;;;;;0.76;100.00;101715.53;5048502;28;20043;-77
2022/02/05 04:56:52;;;;;;;29.30;11.48;;;;;;;0.86;100.00;101730.91;5083130;28;20024;-77
2022/02/05 05:02:12;;;;;;;27.58;11.82;;;;;;;0.74;100.00;101740.59;5090456;28;20073;-75
2022/02/05 05:04:54;;;;;;;30.77;11.75;;;;;;;0.74;100.00;101740.59;5090787;28;20059;-76
2022/02/05 05:20:20;;;;;;;26.52;11.30;;;;;;;0.80;100.00;101757.47;5090535;28;20090;-76
2022/02/05 05:22:45;;;;;;;27.58;10.88;;;;;;;0.74;100.00;101761.41;5090668;28;20082;-73
2022/02/05 05:25:12;;;;;;;30.70;11.90;;;;;;;0.74;100.00;101766.63;5090270;28;20021;-73
2022/02/05 05:27:37;;;;;;;29.65;11.63;;;;;;;0.75;100.00;101760.63;5091031;28;20032;-74
2022/02/05 05:30:04;;;;;;;27.77;11.57;;;;;;;0.80;100.00;101761.78;5090466;28;20386;-76
2022/02/05 05:32:29;;;;;;;29.00;11.68;;;;;;;0.85;100.00;101750.81;5090484;28;20035;-73
2022/02/05 05:34:55;;;;;;;27.77;11.10;;;;;;;0.83;100.00;101768.06;5093531;28;20020;-73
2022/02/05 05:37:21;;;;;;;27.08;10.85;;;;;;;0.82;100.00;101762.78;5094031;28;20051;-74
2022/02/05 05:39:48;;;;;;;26.95;10.52;;;;;;;0.76;100.00;101765.91;5093005;28;20047;-74
2022/02/05 05:42:20;;;;;;;26.92;10.70;;;;;;;0.76;100.00;101775.41;5093878;28;20020;-76
2022/02/05 05:47:48;;;;;;;31.40;11.48;;;;;;;0.77;100.00;101778.13;5094376;28;20495;-75
2022/02/05 05:50:10;;;;;;;27.17;11.23;;;;;;;0.77;100.00;101787.63;5093324;28;20040;-75
2022/02/05 05:52:36;;;;;;;27.77;11.27;;;;;;;0.81;100.00;101792.22;5094491;28;20031;-74
2022/02/05 05:55:02;;;;;;;30.92;11.85;;;;;;;0.82;100.00;101799.22;5094244;28;20032;-77
2022/02/05 05:57:28;;;;;;;29.10;11.82;;;;;;;0.80;100.00;101806.03;5093963;28;20031;-74
2022/02/05 05:59:54;;;;;;;27.88;12.15;;;;;;;0.82;100.00;101801.81;5094007;28;20459;-75
2022/02/05 06:02:19;;;;;;;27.15;12.13;;;;;;;0.81;100.00;101802.63;5093339;28;20024;-75
2022/02/05 06:04:44;;;;;;;28.73;12.40;;;;;;;0.84;100.00;101802.81;5094132;28;20043;-75
2022/02/05 06:07:10;;;;;;;33.75;13.73;;;;;;;0.92;100.00;101804.16;5094294;28;20059;-74
2022/02/05 06:09:39;;;;;;;29.13;12.55;;;;;;;0.91;100.00;101801.47;5093932;28;20463;-74
2022/02/05 06:12:05;;;;;;;30.95;12.80;;;;;;;0.88;100.00;101804.78;5093590;28;20430;-76
2022/02/05 06:14:31;;;;;;;28.27;12.95;;;;;;;0.86;100.00;101803.81;5092999;28;20044;-74
2022/02/05 06:17:02;;;;;;;28.05;12.75;;;;;;;0.83;100.00;101809.72;5093555;28;20486;-77
2022/02/05 06:19:27;;;;;;;28.00;12.73;;;;;;;0.78;100.00;101805.94;5093342;28;20036;-76
2022/02/05 06:21:53;;;;;;;29.67;12.68;;;;;;;0.78;100.00;101802.44;5093092;28;20028;-77
2022/02/05 06:24:18;;;;;;;27.95;12.40;;;;;;;0.76;100.00;101812.78;5093536;28;20394;-77
2022/02/05 06:26:43;;;;;;;29.48;12.27;;;;;;;0.75;100.00;101816.16;5093491;28;20031;-75
2022/02/05 06:29:09;;;;;;;31.63;13.13;;;;;;;0.72;100.00;101813.38;5093715;28;20016;-77
2022/02/05 06:31:34;;;;;;;28.25;12.45;;;;;;;0.77;100.00;101813.66;5091335;28;20532;-77
2022/02/05 06:34:01;;;;;;;31.63;13.10;;;;;;;0.79;100.00;101817.28;5093324;28;20028;-77
2022/02/05 06:36:27;;;;;;;28.30;12.13;;;;;;;0.72;100.00;101816.00;5093191;28;20024;-77
2022/02/05 06:38:52;;;;;;;29.63;12.23;;;;;;;0.72;100.00;101812.50;5092772;28;20022;-77
2022/02/05 06:41:17;;;;;;;30.13;12.25;;;;;;;0.64;100.00;101812.94;5091181;28;20032;-77
2022/02/05 06:43:43;;;;;;;28.58;11.60;;;;;;;0.59;100.00;101813.47;5093188;28;20032;-77
2022/02/05 06:46:08;;;;;;;29.55;12.07;;;;;;;0.56;100.00;101818.50;5092426;28;20368;-78
2022/02/05 06:48:33;;;;;;;28.58;12.95;;;;;;;0.47;100.00;101821.44;5093021;28;20039;-74
2022/02/05 06:50:59;;;;;;;31.10;12.77;;;;;;;0.47;100.00;101821.44;5092360;28;20024;-78
2022/02/05 06:53:24;;;;;;;29.05;12.82;;;;;;;0.45;100.00;101830.81;5092810;28;20024;-77
2022/02/05 06:55:49;;;;;;;30.35;13.30;;;;;;;0.43;100.00;101820.31;5093202;28;20034;-78
2022/02/05 06:58:15;;;;;;;30.88;12.68;;;;;;;0.44;100.00;101826.44;5092907;28;20047;-78
2022/02/05 07:00:40;;;;;;;30.63;12.90;;;;;;;0.40;100.00;101817.53;5092805;28;20028;-78
2022/02/05 07:03:05;;;;;;;32.60;13.27;;;;;;;0.34;100.00;101828.47;5092506;28;20382;-78
2022/02/05 07:05:31;;;;;;;28.00;12.90;;;;;;;0.29;100.00;101832.50;5092483;28;20074;-77
2022/02/05 07:07:56;;;;;;;30.90;13.80;;;;;;;0.27;100.00;101831.50;5092488;28;20020;-77
2022/02/05 07:10:22;;;;;;;31.65;14.00;;;;;;;0.26;100.00;101832.31;5092647;28;20039;-76
2022/02/05 07:15:21;;;;;;;30.65;13.80;;;;;;;0.28;100.00;101848.91;5092380;28;20040;-78
2022/02/05 07:18:27;;;;;;;31.10;13.77;;;;;;;0.30;100.00;101847.28;5092496;28;20494;-78
2022/02/05 07:21:05;;;;;;;34.08;14.90;;;;;;;0.34;100.00;101846.69;5085959;28;20048;-78
2022/02/05 07:31:21;;;;;;;30.00;13.43;;;;;;;0.38;100.00;101855.59;5090883;28;20034;-75
2022/02/05 07:33:48;;;;;;;31.77;13.90;;;;;;;0.43;100.00;101868.88;5092235;28;20032;-78
2022/02/05 07:36:15;;;;;;;31.00;13.40;;;;;;;0.46;100.00;101856.94;5092438;28;20038;-74
2022/02/05 07:38:42;;;;;;;33.60;13.45;;;;;;;0.51;100.00;101862.41;5091815;28;20036;-78
2022/02/05 07:41:07;;;;;;;31.58;13.40;;;;;;;0.52;100.00;101872.94;5091527;28;20028;-78
2022/02/05 07:43:35;;;;;;;32.65;13.80;;;;;;;0.55;100.00;101871.34;5090684;28;20071;-77
2022/02/05 07:46:05;;;;;;;30.92;13.10;;;;;;;0.59;100.00;101875.91;5092256;28;20059;-76
2022/02/05 07:48:31;;;;;;;30.10;12.55;;;;;;;0.62;100.00;101886.53;5089333;28;20059;-75
2022/02/05 07:50:56;;;;;;;29.80;12.93;;;;;;;0.59;100.00;101886.34;5091055;28;20099;-76
2022/02/05 07:53:22;;;;;;;30.63;13.02;;;;;;;0.63;100.00;101876.19;5091998;28;20427;-74
2022/02/05 07:55:47;;;;;;;27.95;12.07;;;;;;;0.69;100.00;101889.59;5091870;28;20024;-78
2022/02/05 07:58:13;;;;;;;28.13;12.07;;;;;;;0.66;100.00;101894.59;5092236;28;20463;-74
2022/02/05 08:00:38;;;;;;;30.75;12.43;;;;;;;0.64;100.00;101891.03;5091676;28;20104;-75
2022/02/05 08:03:04;;;;;;;29.63;12.13;;;;;;;0.58;100.00;101894.94;5091563;28;20039;-77
2022/02/05 08:05:29;;;;;;;32.20;12.68;;;;;;;0.60;100.00;101898.56;5091794;28;20027;-76
2022/02/05 08:07:55;;;;;;;30.60;12.30;;;;;;;0.64;100.00;101904.03;5091617;28;20540;-75
2022/02/05 08:10:26;;;;;;;31.63;12.20;;;;;;;0.71;100.00;101899.19;5091039;28;20155;-76
2022/02/05 08:12:55;;;;;;;30.42;11.93;;;;;;;0.73;100.00;101900.19;5089213;28;20047;-76
2022/02/05 08:15:23;;;;;;;29.80;12.15;;;;;;;0.80;100.00;101900.66;5090009;28;20379;-76
2022/02/05 08:17:49;;;;;;;28.23;11.18;;;;;;;0.88;100.00;101893.31;5088065;28;20450;-78
2022/02/05 08:20:15;;;;;;;29.55;11.40;;;;;;;0.95;100.00;101886.78;5089930;28;20407;-77
2022/02/05 08:22:41;;;;;;;30.58;11.55;;;;;;;1.03;100.00;101896.84;5091796;28;20028;-78
2022/02/05 08:25:06;;;;;;;27.65;10.95;;;;;;;1.15;100.00;101887.94;5091185;28;20023;-76
2022/02/05 08:27:32;;;;;;;27.50;10.55;;;;;;;1.29;100.00;101888.78;5091432;28;20028;-81
2022/02/05 08:30:00;;;;;;;30.05;10.77;;;;;;;1.35;100.00;101878.69;5091108;28;20017;-76
2022/02/05 08:32:28;;;;;;;27.20;9.93;;;;;;;1.47;100.00;101888.94;5091342;28;20035;-76
2022/02/05 08:34:54;;;;;;;26.13;9.18;;;;;;;1.62;100.00;101881.13;5091812;28;20366;-76
2022/02/05 08:37:20;;;;;;;26.35;9.40;;;;;;;1.76;100.00;101892.31;5091453;28;20103;-76
2022/02/05 08:39:46;;;;;;;25.73;9.68;;;;;;;1.87;100.00;101901.66;5091094;28;20135;-77
2022/02/05 08:42:11;;;;;;;26.40;9.05;;;;;;;1.99;100.00;101897.13;5091458;28;20020;-78
2022/02/05 08:44:37;;;;;;;23.02;8.15;;;;;;;2.09;100.00;101895.94;5090847;28;20471;-76
2022/02/05 08:47:04;;;;;;;27.83;9.07;;;;;;;2.16;100.00;101891.97;5091125;28;20032;-77
2022/02/05 08:49:30;;;;;;;26.52;8.70;;;;;;;2.25;100.00;101895.97;5091271;28;20077;-76
2022/02/05 08:51:59;;;;;;;25.98;8.23;;;;;;;2.34;100.00;101890.34;5090366;28;20025;-78
2022/02/05 08:54:25;;;;;;;27.85;8.57;;;;;;;2.41;100.00;101887.25;5091084;28;20034;-77
2022/02/05 08:56:53;;;;;;;24.90;7.95;;;;;;;2.57;100.00;101888.09;5091201;28;20519;-77
2022/02/05 08:59:23;;;;;;;23.23;8.00;;;;;;;2.67;100.00;101887.75;5091451;28;20115;-79
2022/02/05 09:02:02;;;;;;;28.77;8.35;;;;;;;2.71;100.00;101884.50;5090759;28;20021;-78
2022/02/05 09:04:44;;;;;;;27.42;7.97;;;;;;;2.79;100.00;101895.34;5090150;28;20024;-78
2022/02/05 09:07:09;;;;;;;22.33;7.55;;;;;;;2.84;100.00;101899.13;5090000;28;20141;-78
2022/02/05 09:09:46;;;;;;;24.75;7.85;;;;;;;2.94;100.00;101901.38;5093139;28;20069;-79
2022/02/05 09:14:43;;;;;;;24.10;7.45;;;;;;;3.14;100.00;101905.00;5094562;28;20043;-78
2022/02/05 09:17:08;;;;;;;26.73;7.53;;;;;;;3.29;100.00;101918.00;5093722;28;20020;-79
2022/02/05 09:19:35;;;;;;;25.00;7.63;;;;;;;3.34;100.00;101920.84;5094515;28;20240;-78
2022/02/05 09:22:01;;;;;;;25.58;7.80;;;;;;;3.39;100.00;101918.44;5094418;28;20043;-79
2022/02/05 09:24:26;;;;;;;26.42;8.00;;;;;;;3.39;100.00;101932.41;5094648;28;20111;-79
2022/02/05 09:26:59;;;;;;;24.58;7.35;;;;;;;3.51;100.00;101926.94;5094361;28;20692;-79
2022/02/05 09:29:25;;;;;;;25.60;7.78;;;;;;;3.61;100.00;101933.50;5094434;28;20024;-79
2022/02/05 09:31:51;;;;;;;25.83;7.10;;;;;;;3.72;100.00;101936.66;5093892;28;20051;-75
2022/02/05 09:34:17;;;;;;;24.02;7.15;;;;;;;3.73;100.00;101947.19;5094848;28;20024;-79
2022/02/05 09:36:43;;;;;;;24.75;6.95;;;;;;;3.90;100.00;101934.03;5094381;28;20065;-78
2022/02/05 09:39:10;;;;;;;23.10;7.60;;;;;;;4.02;100.00;101945.13;5093896;28;20043;-79
2022/02/05 09:41:37;;;;;;;24.92;7.25;;;;;;;4.11;100.00;101940.31;5093937;28;20039;-79
2022/02/05 09:44:03;;;;;;;24.60;7.32;;;;;;;4.11;100.00;101937.72;5094380;28;20059;-79
2022/02/05 09:46:29;;;;;;;25.30;7.45;;;;;;;4.26;100.00;101942.78;5094074;28;20028;-79
2022/02/05 09:48:55;;;;;;;25.13;7.00;;;;;;;4.35;100.00;101932.75;5094392;28;20032;-79
2022/02/05 09:51:29;;;;;;;23.35;7.25;;;;;;;4.54;100.00;101938.81;5093704;28;20107;-79
2022/02/05 09:53:56;;;;;;;24.20;6.95;;;;;;;4.65;100.00;101955.06;5092307;28;20028;-79
2022/02/05 09:56:24;;;;;;;23.20;6.80;;;;;;;4.56;100.00;101936.28;5094467;28;20023;-78
2022/02/05 09:58:51;;;;;;;25.35;6.72;;;;;;;4.62;100.00;101927.00;5094038;28;20472;-79
2022/02/05 10:01:20;;;;;;;24.40;6.93;;;;;;;4.61;100.00;101945.25;5090671;28;20025;-79
2022/02/05 10:03:47;;;;;;;24.08;6.90;;;;;;;4.79;100.00;101935.63;5093854;28;20035;-79
2022/02/05 10:06:29;;;;;;;23.75;6.88;;;;;;;4.95;100.00;101933.69;5093785;28;20048;-79
2022/02/05 10:09:03;;;;;;;24.95;7.45;;;;;;;4.95;100.00;101937.22;5091674;28;20030;-77
2022/02/05 10:11:29;;;;;;;23.45;7.40;;;;;;;5.00;100.00;101921.69;5093639;28;20056;-78
2022/02/05 10:14:15;;;;;;;24.52;7.10;;;;;;;5.19;100.00;101931.25;5093894;28;20066;-75
2022/02/05 10:16:41;;;;;;;23.95;6.88;;;;;;;5.29;100.00;101928.22;5092861;28;20119;-78
2022/02/05 10:19:07;;;;;;;23.08;6.90;;;;;;;5.68;100.00;101932.44;5093501;28;20032;-79
2022/02/05 10:21:32;;;;;;;23.58;6.70;;;;;;;5.99;100.00;101923.25;5091836;28;20364;-79
2022/02/05 10:24:06;;;;;;;23.85;6.80;;;;;;;6.19;100.00;101930.19;5093978;28;20028;-77
2022/02/05 10:26:42;;;;;;;22.75;6.68;;;;;;;6.21;100.00;101931.13;5092108;28;20439;-76
2022/02/05 10:29:10;;;;;;;25.73;6.32;;;;;;;6.31;100.00;101926.28;5092955;28;20038;-76
2022/02/05 10:32:08;;;;;;;25.50;6.60;;;;;;;6.47;100.00;101925.13;5093335;28;20034;-77
2022/02/05 10:35:15;;;;;;;24.83;6.32;;;;;;;6.73;100.00;101927.00;5093322;28;20038;-79
2022/02/05 10:37:51;;;;;;;23.60;6.32;;;;;;;6.76;100.00;101932.38;5092640;28;20028;-80
2022/02/05 10:40:43;;;;;;;23.70;6.22;;;;;;;6.82;100.00;101936.06;5092797;28;20027;-80
2022/02/05 10:43:10;;;;;;;22.60;5.85;;;;;;;6.75;100.00;101932.31;5090709;28;20399;-79
2022/02/05 10:45:42;;;;;;;22.10;5.88;;;;;;;6.80;100.00;101941.25;5092968;28;20023;-79
2022/02/05 10:48:09;;;;;;;24.45;6.10;;;;;;;6.97;100.00;101911.25;5093400;28;20028;-78
2022/02/05 10:50:35;;;;;;;22.92;6.30;;;;;;;7.38;100.00;101915.25;5091243;28;20430;-75
2022/02/05 10:53:11;;;;;;;22.52;6.05;;;;;;;7.83;97.13;101904.50;5093076;28;20024;-79
2022/02/05 10:56:07;;;;;;;22.25;5.95;;;;;;;8.12;95.94;101910.69;5091714;28;20364;-79
2022/02/05 11:06:57;;;;;;;22.15;5.57;;;;;;;9.16;87.06;101917.28;5092388;28;20081;-80
2022/02/05 11:09:24;;;;;;;23.48;6.22;;;;;;;9.14;86.05;101916.31;5092575;28;20028;-77
2022/02/05 11:20:06;;;;;;;21.60;6.63;;;;;;;7.81;86.16;101898.28;5069646;28;20415;-80
2022/02/05 11:22:34;;;;;;;21.52;6.70;;;;;;;7.77;87.05;101910.44;5069855;28;20047;-80
2022/02/05 11:25:02;;;;;;;20.80;6.43;;;;;;;8.51;85.41;101899.59;5069816;28;20025;-80
2022/02/05 11:27:28;;;;;;;21.52;6.38;;;;;;;8.66;81.47;101904.44;5066249;28;20404;-79
2022/02/05 11:29:53;;;;;;;25.48;6.90;;;;;;;8.46;86.30;101905.59;5066810;28;20128;-79
2022/02/05 11:32:25;;;;;;;22.13;6.07;;;;;;;8.54;83.84;101925.16;5069444;28;20534;-79
2022/02/05 11:35:09;;;;;;;21.97;6.83;;;;;;;8.76;84.93;101909.97;5066317;28;20067;-80
2022/02/05 11:37:56;;;;;;;22.13;6.60;;;;;;;8.96;82.57;101906.16;5068288;28;20456;-80
2022/02/05 11:40:40;;;;;;;23.63;6.63;;;;;;;8.60;83.89;101895.47;5067436;28;20116;-80
2022/02/05 11:43:15;;;;;;;23.70;6.75;;;;;;;8.11;84.35;101902.72;5067956;28;20040;-79
2022/02/05 11:45:40;;;;;;;22.33;6.68;;;;;;;8.36;84.15;101900.00;5069503;28;20368;-80
2022/02/05 11:48:47;;;;;;;23.38;6.80;;;;;;;9.44;80.77;101907.44;5069475;28;20043;-80
2022/02/05 11:51:27;;;;;;;21.98;6.38;;;;;;;9.66;73.61;101914.16;5057978;28;20498;-80
2022/02/05 11:53:56;;;;;;;21.08;5.80;;;;;;;9.46;76.60;101912.75;5076512;28;20395;-75
2022/02/05 11:56:33;;;;;;;20.45;5.72;;;;;;;9.89;76.52;101903.28;5089152;28;20020;-80
2022/02/05 11:58:59;;;;;;;20.42;5.22;;;;;;;10.04;70.57;101882.50;5091841;28;20024;-79
2022/02/05 12:01:35;;;;;;;21.95;4.63;;;;;;;10.49;69.25;101888.81;5091358;28;20027;-79
2022/02/05 12:04:13;;;;;;;22.20;4.78;;;;;;;10.61;68.16;101888.16;5091376;28;20389;-80
2022/02/05 12:06:57;;;;;;;20.33;4.47;;;;;;;10.23;68.06;101875.00;5091804;28;20450;-78
2022/02/05 12:09:32;;;;;;;20.85;4.75;;;;;;;10.54;69.51;101854.53;5091979;28;20063;-80
2022/02/05 12:12:34;;;;;;;19.50;4.65;;;;;;;10.74;64.47;101873.44;5089864;28;20106;-79
2022/02/05 12:15:12;;;;;;;19.25;4.22;;;;;;;11.09;64.46;101874.13;5088773;28;20024;-80
2022/02/05 12:18:04;;;;;;;18.60;4.10;;;;;;;11.45;64.06;101862.41;5091007;28;20055;-80
2022/02/05 12:20:33;;;;;;;19.98;4.45;;;;;;;11.21;63.14;101854.03;5090776;28;20050;-80
2022/02/05 12:23:28;;;;;;;19.60;4.03;;;;;;;10.34;63.56;101864.66;5091508;28;20040;-80
2022/02/05 12:25:56;;;;;;;19.80;4.45;;;;;;;9.77;67.01;101859.88;5091118;28;20028;-75
2022/02/05 12:28:34;;;;;;;19.23;4.25;;;;;;;9.07;69.79;101858.97;5091314;28;20054;-80
2022/02/05 12:31:04;;;;;;;19.20;4.10;;;;;;;8.52;70.52;101853.97;5090459;28;20081;-79
2022/02/05 12:33:59;;;;;;;20.25;4.57;;;;;;;9.04;71.97;101857.16;5091023;28;20028;-80
2022/02/05 12:36:33;;;;;;;18.65;4.22;;;;;;;9.41;68.18;101866.03;5089892;28;20034;-79
2022/02/05 12:39:00;;;;;;;20.38;4.30;;;;;;;10.07;66.99;101853.50;5090443;28;20451;-80
2022/02/05 12:41:26;;;;;;;20.40;3.90;;;;;;;10.61;64.49;101846.75;5090662;28;20028;-80
2022/02/05 12:43:54;;;;;;;21.30;4.30;;;;;;;10.76;62.97;101843.53;5092294;28;20436;-79
2022/02/05 12:46:22;;;;;;;16.27;3.70;;;;;;;11.32;60.96;101833.94;5092781;28;20054;-77
2022/02/05 12:48:53;;;;;;;21.42;4.03;;;;;;;11.89;57.05;101834.84;5095544;28;20149;-78
2022/02/05 12:51:19;;;;;;;22.85;4.55;;;;;;;12.41;55.20;101833.78;5094887;28;20020;-78
2022/02/05 12:53:44;;;;;;;19.55;4.03;;;;;;;11.95;51.82;101834.94;5094996;28;20536;-78
2022/02/05 12:56:18;;;;;;;19.48;3.67;;;;;;;11.95;52.67;101831.44;5095246;28;20024;-78
2022/02/05 12:58:52;;;;;;;17.27;3.40;;;;;;;11.91;53.46;101826.91;5094742;28;20827;-74
2022/02/05 13:01:17;;;;;;;19.83;3.78;;;;;;;12.53;53.27;101824.22;5094961;28;20492;-77
2022/02/05 13:03:43;;;;;;;20.05;3.83;;;;;;;11.29;54.37;101820.66;5095112;28;20056;-78
2022/02/05 13:06:18;;;;;;;19.55;3.90;;;;;;;10.10;57.34;101831.53;5094753;28;20024;-77
2022/02/05 13:08:51;;;;;;;19.83;3.88;;;;;;;9.50;58.62;101823.13;5094775;28;20150;-78
2022/02/05 13:11:21;;;;;;;20.20;4.18;;;;;;;9.56;59.41;101817.13;5094126;28;20079;-78
2022/02/05 13:13:53;;;;;;;18.67;3.72;;;;;;;9.58;60.03;101825.94;5095184;28;20835;-76
2022/02/05 13:16:23;;;;;;;18.20;3.55;;;;;;;9.27;56.83;101822.56;5094711;28;20024;-77
2022/02/05 13:19:15;;;;;;;19.58;3.85;;;;;;;9.31;58.81;101811.22;5095023;28;20031;-78
2022/02/05 13:25:32;;;;;;;18.25;3.55;;;;;;;11.29;54.30;101807.44;5094609;28;20066;-79
2022/02/05 13:28:00;;;;;;;17.38;3.80;;;;;;;11.39;52.91;101801.41;5094081;28;20082;-79
2022/02/05 13:36:21;;;;;;;20.48;3.95;;;;;;;10.86;54.85;101798.72;5094730;28;20039;-79
2022/02/05 13:41:50;;;;;;;17.17;3.50;;;;;;;11.33;53.78;101770.44;5092748;28;20043;-78
2022/02/05 13:44:19;;;;;;;16.10;3.40;;;;;;;11.88;49.88;101784.47;5093332;28;20482;-77
2022/02/05 13:47:10;;;;;;;18.58;3.90;;;;;;;10.58;54.37;101779.69;5094037;28;20039;-79
2022/02/05 13:49:36;;;;;;;21.38;3.97;;;;;;;9.20;58.24;101787.22;5092711;28;20020;-78
2022/02/05 13:52:13;;;;;;;19.13;3.95;;;;;;;9.33;60.06;101787.53;5094319;28;20023;-79
2022/02/05 13:54:41;;;;;;;18.73;3.65;;;;;;;9.95;57.83;101776.63;5092392;28;20066;-79
2022/02/05 13:57:09;;;;;;;20.13;4.10;;;;;;;10.65;56.75;101784.25;5094026;28;20069;-77
2022/02/05 13:59:34;;;;;;;20.02;4.00;;;;;;;10.08;55.57;101793.66;5093944;28;20040;-78
2022/02/05 14:02:14;;;;;;;19.52;4.07;;;;;;;8.92;60.04;101769.78;5094224;28;20028;-78
2022/02/05 14:04:39;;;;;;;19.50;4.40;;;;;;;9.09;62.28;101778.16;5091967;28;20356;-79
2022/02/05 14:07:05;;;;;;;20.30;4.15;;;;;;;9.74;60.94;101779.69;5093977;28;20031;-79
2022/02/05 14:09:34;;;;;;;18.13;3.83;;;;;;;9.70;58.89;101757.59;5093677;28;20035;-79
2022/02/05 14:12:21;;;;;;;18.13;4.10;;;;;;;9.64;59.32;101770.69;5093581;28;20036;-78
2022/02/05 14:15:01;;;;;;;17.52;4.00;;;;;;;9.77;59.80;101754.25;5092957;28;20024;-79
2022/02/05 14:17:27;;;;;;;18.90;4.20;;;;;;;9.25;60.17;101747.75;5092931;28;20028;-79